Time;durP1;ratioP1;P1;durP2;ratioP2;P2;SDS_P1;SDS_P2;PMS_P1;PMS_P2;Temp;Humidity;BMP_temperature;BMP_pressure;BME280_temperature;BME280_humidity;BME280_pressure;Samples;Min_cycle;Max_cycle;Signal;HPM_P1;HPM_P2
2023/03/17 00:01:29;;;;;;;0.93;0.93;;;;;;;4.80;98.93;99960.28;4997551;28;20481;-51
2023/03/17 00:03:56;;;;;;;1.83;1.70;;;;;;;4.86;98.73;99953.19;5005412;28;20456;-50
2023/03/17 00:06:28;;;;;;;3.23;1.03;;;;;;;4.76;98.79;99957.69;4997232;28;20487;-51
2023/03/17 00:08:55;;;;;;;4.00;1.87;;;;;;;4.61;99.30;99963.09;5006094;28;21013;-51
2023/03/17 00:11:21;;;;;;;0.53;0.43;;;;;;;4.55;99.23;99962.31;5006251;28;20852;-51
2023/03/17 00:13:47;;;;;;;1.90;1.80;;;;;;;4.52;99.69;99954.41;5000272;28;20452;-51
2023/03/17 00:16:20;;;;;;;1.10;1.00;;;;;;;4.50;99.64;99959.69;4999723;28;20457;-51
2023/03/17 00:18:48;;;;;;;0.70;0.70;;;;;;;4.61;99.52;99957.84;5004758;28;20540;-51
2023/03/17 00:21:21;;;;;;;2.83;1.53;;;;;;;4.55;99.31;99954.41;5006392;28;21287;-51
2023/03/17 00:23:50;;;;;;;0.70;0.70;;;;;;;4.55;99.14;99952.66;5002718;28;20543;-50
2023/03/17 00:26:19;;;;;;;1.93;1.53;;;;;;;4.42;100.00;99945.75;4999533;28;20938;-50
2023/03/17 00:28:46;;;;;;;1.90;1.80;;;;;;;4.44;99.68;99938.72;5002967;28;20548;-51
2023/03/17 00:31:22;;;;;;;2.30;1.17;;;;;;;4.69;98.63;99941.97;5006218;28;20515;-51
2023/03/17 00:33:51;;;;;;;4.13;1.87;;;;;;;4.60;99.24;99955.22;4996733;28;20449;-51
2023/03/17 00:36:21;;;;;;;1.07;1.00;;;;;;;4.62;98.57;99961.34;5006074;28;20460;-50
2023/03/17 00:38:48;;;;;;;1.07;0.97;;;;;;;4.53;98.48;99969.34;5005728;28;20857;-51
2023/03/17 00:41:15;;;;;;;3.43;2.53;;;;;;;4.38;99.04;99958.03;4999210;28;20992;-50
2023/03/17 00:43:41;;;;;;;1.00;1.00;;;;;;;4.26;99.87;99946.78;4999817;28;20453;-51
2023/03/17 00:46:13;;;;;;;1.43;1.37;;;;;;;4.22;99.59;99945.03;4999151;28;20452;-50
2023/03/17 00:48:42;;;;;;;4.37;2.23;;;;;;;4.22;100.00;99932.75;4999468;28;20477;-51
2023/03/17 00:51:08;;;;;;;2.53;1.80;;;;;;;4.18;100.00;99927.56;5003518;28;20469;-51
2023/03/17 00:53:35;;;;;;;1.33;1.23;;;;;;;4.17;100.00;99926.69;5000453;28;20456;-50
2023/03/17 00:56:01;;;;;;;1.27;1.17;;;;;;;4.16;100.00;99930.19;5000981;28;20444;-51
2023/03/17 00:58:33;;;;;;;3.00;0.60;;;;;;;4.31;100.00;99921.28;4999147;28;20501;-50
2023/03/17 01:01:00;;;;;;;1.00;1.00;;;;;;;4.87;98.55;99915.44;5003834;28;20465;-51
2023/03/17 01:03:27;;;;;;;2.60;1.23;;;;;;;4.34;99.83;99919.50;5005843;28;20865;-51
2023/03/17 01:05:56;;;;;;;3.30;2.97;;;;;;;4.48;99.50;99922.00;5003164;28;20548;-51
2023/03/17 01:08:24;;;;;;;3.07;1.43;;;;;;;4.54;99.52;99910.56;5005703;28;20454;-51
2023/03/17 01:10:51;;;;;;;1.20;1.10;;;;;;;4.47;100.00;99921.13;5002444;28;20469;-51
2023/03/17 01:13:18;;;;;;;1.37;1.30;;;;;;;4.64;99.81;99915.69;4999063;28;20460;-51
2023/03/17 01:15:46;;;;;;;1.50;1.43;;;;;;;4.49;99.67;99904.44;5000738;28;20457;-50
2023/03/17 01:18:15;;;;;;;2.33;2.13;;;;;;;4.58;99.72;99899.09;5004580;28;20453;-50
2023/03/17 01:20:42;;;;;;;2.50;2.37;;;;;;;4.56;99.85;99893.84;5002461;28;20838;-51
2023/03/17 01:23:11;;;;;;;1.63;1.53;;;;;;;4.51;99.84;99893.00;4998766;28;20521;-51
2023/03/17 01:25:40;;;;;;;2.00;1.23;;;;;;;4.33;100.00;99894.09;5001025;28;20548;-51
2023/03/17 01:28:07;;;;;;;2.80;2.70;;;;;;;4.39;100.00;99880.00;5005490;28;20523;-51
2023/03/17 01:30:37;;;;;;;4.40;1.87;;;;;;;4.40;100.00;99887.00;5003965;28;20475;-51
2023/03/17 01:33:08;;;;;;;1.60;1.50;;;;;;;4.32;100.00;99887.06;4996782;28;20536;-50
2023/03/17 01:35:37;;;;;;;4.00;1.03;;;;;;;4.39;100.00;99880.00;5005660;28;20524;-51
2023/03/17 01:38:04;;;;;;;6.40;2.00;;;;;;;4.30;100.00;99874.84;4986923;28;20448;-51
2023/03/17 01:40:37;;;;;;;0.50;0.50;;;;;;;4.39;100.00;99883.50;4998454;28;20489;-51
2023/03/17 01:43:09;;;;;;;6.73;1.67;;;;;;;4.32;100.00;99886.22;5003750;28;20482;-51
2023/03/17 01:46:13;;;;;;;0.77;0.77;;;;;;;4.23;100.00;99884.53;5007195;28;20487;-51
2023/03/17 01:48:44;;;;;;;1.63;1.40;;;;;;;4.47;99.91;99879.03;4998596;28;20455;-50
2023/03/17 01:51:17;;;;;;;2.37;0.97;;;;;;;4.39;100.00;99891.41;5002542;28;20466;-51
2023/03/17 01:53:47;;;;;;;1.30;1.20;;;;;;;4.37;99.94;99897.53;5000415;28;20445;-51
2023/03/17 01:56:14;;;;;;;0.97;0.90;;;;;;;4.37;100.00;99898.41;5000620;28;20452;-51
2023/03/17 01:58:40;;;;;;;2.20;2.10;;;;;;;4.51;100.00;99905.31;4998282;28;20531;-51
2023/03/17 02:01:07;;;;;;;1.63;1.40;;;;;;;4.76;99.53;99901.53;5001965;28;20998;-50
2023/03/17 02:03:33;;;;;;;1.53;0.83;;;;;;;4.54;99.87;99893.00;5004685;28;20822;-51
2023/03/17 02:06:01;;;;;;;1.07;0.80;;;;;;;4.11;100.00;99893.44;5001773;28;20481;-50
2023/03/17 02:08:27;;;;;;;5.03;1.40;;;;;;;4.04;100.00;99889.09;5008037;28;20962;-51
2023/03/17 02:10:56;;;;;;;2.20;1.83;;;;;;;3.88;100.00;99886.63;5011154;28;20469;-51
2023/03/17 02:13:23;;;;;;;1.70;1.23;;;;;;;3.92;100.00;99872.53;4981407;28;20453;-50
2023/03/17 02:15:51;;;;;;;1.83;1.73;;;;;;;3.74;100.00;99874.44;5001770;28;20980;-51
2023/03/17 02:18:20;;;;;;;0.77;0.77;;;;;;;3.87;100.00;99872.59;4997628;28;20938;-50
2023/03/17 02:20:46;;;;;;;7.03;1.53;;;;;;;3.77;100.00;99869.16;5000453;28;20472;-51
2023/03/17 02:23:22;;;;;;;5.40;2.43;;;;;;;3.78;100.00;99852.50;5004139;28;20469;-50
2023/03/17 02:25:51;;;;;;;1.00;0.90;;;;;;;3.89;100.00;99838.41;5003755;28;20449;-51
2023/03/17 02:28:24;;;;;;;1.93;1.33;;;;;;;3.71;100.00;99836.81;4998014;28;20505;-51
2023/03/17 02:30:51;;;;;;;1.43;1.40;;;;;;;3.79;100.00;99835.84;4996045;28;20469;-51
2023/03/17 02:33:18;;;;;;;1.47;1.40;;;;;;;3.74;100.00;99850.78;4994858;28;20457;-51
2023/03/17 02:35:45;;;;;;;1.80;1.23;;;;;;;3.75;100.00;99846.41;5004160;28;20453;-51
2023/03/17 02:38:11;;;;;;;1.33;1.07;;;;;;;3.82;100.00;99850.72;4999257;28;20463;-51
2023/03/17 02:40:37;;;;;;;2.07;1.73;;;;;;;3.61;100.00;99864.91;4997134;28;20497;-51
2023/03/17 02:43:04;;;;;;;16.23;1.70;;;;;;;3.74;100.00;99855.19;5003077;28;20450;-50
2023/03/17 02:45:31;;;;;;;0.70;0.70;;;;;;;3.58;100.00;99859.69;4992658;28;20450;-50
2023/03/17 02:47:58;;;;;;;7.13;0.80;;;;;;;4.00;100.00;99852.34;5002682;28;20453;-51
2023/03/17 02:50:27;;;;;;;1.33;0.70;;;;;;;3.75;100.00;99849.91;5003976;28;20475;-51
2023/03/17 02:52:54;;;;;;;3.90;0.93;;;;;;;3.54;100.00;99847.44;4984237;28;20971;-51
2023/03/17 02:55:21;;;;;;;0.50;0.50;;;;;;;3.44;100.00;99849.28;5004129;28;20453;-51
2023/03/17 02:57:47;;;;;;;1.33;1.10;;;;;;;3.28;100.00;99847.59;5000187;28;20453;-50
2023/03/17 03:00:14;;;;;;;3.03;1.10;;;;;;;3.28;100.00;99852.84;5010198;28;20499;-51
2023/03/17 03:02:41;;;;;;;0.97;0.97;;;;;;;3.10;100.00;99855.59;5001207;28;20985;-51
2023/03/17 03:05:08;;;;;;;1.47;1.47;;;;;;;3.03;100.00;99851.28;4996311;28;20454;-50
2023/03/17 03:07:35;;;;;;;1.13;1.00;;;;;;;3.13;100.00;99858.19;5010683;28;20456;-51
2023/03/17 03:10:01;;;;;;;1.87;1.77;;;;;;;2.94;100.00;99857.44;4997290;28;20468;-51
2023/03/17 03:12:28;;;;;;;0.67;0.67;;;;;;;2.82;100.00;99860.97;4992250;28;20454;-51
2023/03/17 03:14:54;;;;;;;1.00;0.87;;;;;;;2.78;100.00;99866.25;4999838;28;20498;-50
2023/03/17 03:17:21;;;;;;;0.40;0.40;;;;;;;2.56;100.00;99865.44;4999906;28;20453;-50
2023/03/17 03:19:48;;;;;;;5.07;1.67;;;;;;;2.87;100.00;99869.69;4997084;28;20492;-51
2023/03/17 03:22:15;;;;;;;0.73;0.73;;;;;;;2.58;100.00;99866.31;5000403;28;20457;-51
2023/03/17 03:24:41;;;;;;;0.93;0.93;;;;;;;2.61;100.00;99859.34;5004020;28;21025;-50
2023/03/17 03:27:07;;;;;;;5.83;1.97;;;;;;;2.58;100.00;99835.72;5000405;28;20524;-50
2023/03/17 03:29:35;;;;;;;0.53;0.53;;;;;;;2.68;100.00;99847.91;4993600;28;20449;-50
2023/03/17 03:32:01;;;;;;;0.50;0.50;;;;;;;2.60;100.00;99844.47;5000534;28;20860;-51
2023/03/17 03:34:28;;;;;;;2.20;1.00;;;;;;;2.42;100.00;99848.88;5002785;28;20449;-50
2023/03/17 03:36:54;;;;;;;0.83;0.70;;;;;;;2.51;100.00;99846.25;5000809;28;21018;-51
2023/03/17 03:39:21;;;;;;;0.80;0.80;;;;;;;2.42;100.00;99851.50;4996555;28;21062;-50
2023/03/17 03:41:47;;;;;;;0.50;0.50;;;;;;;2.58;100.00;99861.06;4998921;28;21016;-50
2023/03/17 03:44:14;;;;;;;3.07;1.10;;;;;;;2.36;100.00;99850.66;5003497;28;20488;-50
2023/03/17 03:46:40;;;;;;;0.87;0.87;;;;;;;2.26;100.00;99843.69;5000792;28;20452;-51
2023/03/17 03:49:07;;;;;;;0.70;0.70;;;;;;;2.07;100.00;99839.38;4996851;28;20523;-50
2023/03/17 03:51:33;;;;;;;1.33;1.23;;;;;;;2.04;100.00;99845.47;4994378;28;21019;-50
2023/03/17 03:54:00;;;;;;;0.40;0.30;;;;;;;2.03;100.00;99837.59;5001114;28;20462;-50
2023/03/17 03:56:26;;;;;;;1.97;1.77;;;;;;;2.02;100.00;99841.09;4999962;28;20820;-50
2023/03/17 03:58:53;;;;;;;1.00;0.97;;;;;;;1.91;100.00;99841.09;4996366;28;20457;-51
2023/03/17 04:01:19;;;;;;;0.70;0.57;;;;;;;1.93;100.00;99830.66;4998970;28;20477;-50
2023/03/17 04:03:46;;;;;;;0.90;0.80;;;;;;;1.97;100.00;99835.00;5003920;28;20445;-50
2023/03/17 04:06:12;;;;;;;1.53;1.50;;;;;;;2.14;100.00;99835.84;4998649;28;20489;-50
2023/03/17 04:08:39;;;;;;;1.67;0.93;;;;;;;2.11;100.00;99834.97;5007690;28;20452;-50
2023/03/17 04:11:05;;;;;;;0.80;0.80;;;;;;;2.23;100.00;99848.06;4998325;28;20466;-51
2023/03/17 04:13:31;;;;;;;0.30;0.30;;;;;;;2.22;100.00;99852.44;5002972;28;20511;-50
2023/03/17 04:15:58;;;;;;;5.40;1.20;;;;;;;2.00;100.00;99851.59;4990050;28;20480;-51
2023/03/17 04:18:25;;;;;;;0.70;0.30;;;;;;;1.91;100.00;99859.44;5003122;28;20453;-50
2023/03/17 04:20:51;;;;;;;0.50;0.30;;;;;;;1.95;100.00;99855.97;5001292;28;20503;-51
2023/03/17 04:23:18;;;;;;;1.27;0.80;;;;;;;1.81;100.00;99860.34;4991528;28;20457;-51
2023/03/17 04:25:44;;;;;;;0.50;0.50;;;;;;;1.71;100.00;99864.72;5001562;28;20471;-50
2023/03/17 04:28:11;;;;;;;1.27;1.27;;;;;;;1.56;100.00;99856.84;4996329;28;20453;-50
2023/03/17 04:30:37;;;;;;;0.77;0.77;;;;;;;1.71;100.00;99862.09;4998030;28;20476;-50
2023/03/17 04:33:04;;;;;;;1.40;1.30;;;;;;;1.71;100.00;99863.84;5004976;28;20506;-51
2023/03/17 04:35:30;;;;;;;0.40;0.30;;;;;;;1.67;100.00;99862.09;4998704;28;20500;-51
2023/03/17 04:37:57;;;;;;;0.53;0.53;;;;;;;1.70;100.00;99856.84;5002640;28;20454;-51
2023/03/17 04:40:23;;;;;;;1.63;0.73;;;;;;;1.65;100.00;99850.75;5001800;28;20532;-51
2023/03/17 04:42:50;;;;;;;1.30;1.20;;;;;;;1.63;100.00;99868.19;4995838;28;20933;-50
2023/03/17 04:45:16;;;;;;;1.53;1.47;;;;;;;1.71;100.00;99862.09;4997177;28;20454;-50
2023/03/17 04:47:44;;;;;;;6.13;2.13;;;;;;;1.64;100.00;99860.31;5002482;28;20449;-50
2023/03/17 04:50:12;;;;;;;1.17;0.73;;;;;;;1.54;100.00;99865.59;5002649;28;20465;-50
2023/03/17 04:52:42;;;;;;;1.03;0.97;;;;;;;1.54;100.00;99855.97;5002648;28;20875;-49
2023/03/17 04:55:09;;;;;;;1.90;1.07;;;;;;;1.55;100.00;99859.47;4997847;28;20467;-50
2023/03/17 04:57:35;;;;;;;0.30;0.23;;;;;;;1.56;100.00;99858.59;5012914;28;20448;-50
2023/03/17 05:00:04;;;;;;;10.60;0.97;;;;;;;1.59;100.00;99850.72;4998795;28;20527;-49
2023/03/17 05:02:31;;;;;;;0.93;0.90;;;;;;;1.68;100.00;99850.75;5004290;28;20477;-49
2023/03/17 05:04:57;;;;;;;0.40;0.40;;;;;;;1.84;100.00;99867.34;4996816;28;20452;-49
2023/03/17 05:07:24;;;;;;;3.43;0.90;;;;;;;1.86;100.00;99874.31;5004241;28;20821;-49
2023/03/17 05:09:50;;;;;;;1.57;0.97;;;;;;;1.95;100.00;99865.59;4992646;28;20461;-49
2023/03/17 05:12:17;;;;;;;1.37;1.27;;;;;;;1.98;100.00;99868.19;5001367;28;20449;-49
2023/03/17 05:14:43;;;;;;;0.40;0.30;;;;;;;1.92;100.00;99881.28;4999122;28;21018;-49
2023/03/17 05:17:10;;;;;;;0.40;0.30;;;;;;;1.83;100.00;99884.81;5003536;28;20503;-49
2023/03/17 05:19:36;;;;;;;7.27;1.00;;;;;;;1.80;100.00;99881.31;5005392;28;20492;-49
2023/03/17 05:22:03;;;;;;;0.70;0.70;;;;;;;1.62;100.00;99877.78;5000481;28;20475;-49
2023/03/17 05:24:30;;;;;;;0.53;0.50;;;;;;;1.36;100.00;99879.50;4997727;28;20461;-53
2023/03/17 05:26:56;;;;;;;0.83;0.80;;;;;;;1.39;100.00;99869.94;5003090;28;20457;-49
2023/03/17 05:29:22;;;;;;;1.43;1.10;;;;;;;2.00;100.00;99864.69;5005688;28;20449;-48
2023/03/17 05:31:49;;;;;;;1.63;1.63;;;;;;;1.75;100.00;99862.94;5001565;28;20563;-49
2023/03/17 05:34:16;;;;;;;1.07;1.07;;;;;;;1.68;100.00;99859.47;5003959;28;20453;-49
2023/03/17 05:36:43;;;;;;;1.17;0.80;;;;;;;1.71;100.00;99866.47;5001451;28;20956;-49
2023/03/17 05:39:09;;;;;;;2.40;1.17;;;;;;;1.63;100.00;99862.94;4998533;28;20456;-48
2023/03/17 05:41:39;;;;;;;13.07;2.53;;;;;;;1.81;100.00;99869.97;5002021;28;20869;-49
2023/03/17 05:44:05;;;;;;;4.10;2.00;;;;;;;1.78;100.00;99857.72;5005082;28;20813;-49
2023/03/17 05:46:32;;;;;;;0.63;0.50;;;;;;;1.69;100.00;99869.09;5001863;28;20456;-48
2023/03/17 05:48:58;;;;;;;0.73;0.73;;;;;;;1.62;100.00;99869.94;4998343;28;20449;-49
2023/03/17 05:51:26;;;;;;;0.40;0.40;;;;;;;1.72;100.00;99873.44;4998281;28;20890;-49
2023/03/17 05:53:52;;;;;;;0.53;0.53;;;;;;;1.70;100.00;99872.56;4992574;28;20824;-48
2023/03/17 05:56:23;;;;;;;1.47;1.37;;;;;;;1.70;100.00;99869.94;5000174;28;20450;-49
2023/03/17 05:58:50;;;;;;;1.60;1.50;;;;;;;1.74;100.00;99866.44;5005085;28;20536;-49
2023/03/17 06:01:16;;;;;;;13.20;4.20;;;;;;;1.56;100.00;99856.84;5002431;28;20496;-49
2023/03/17 06:03:43;;;;;;;0.77;0.77;;;;;;;1.64;100.00;99856.84;4997240;28;20503;-48
2023/03/17 06:06:09;;;;;;;3.23;1.47;;;;;;;1.54;100.00;99858.59;5002166;28;20478;-48
2023/03/17 06:08:36;;;;;;;2.20;0.87;;;;;;;1.56;100.00;99855.97;5006963;28;20460;-48
2023/03/17 06:11:02;;;;;;;3.60;1.80;;;;;;;1.85;100.00;99863.84;5002682;28;20479;-49
2023/03/17 06:13:29;;;;;;;0.60;0.60;;;;;;;1.92;100.00;99870.81;4998151;28;20502;-49
2023/03/17 06:15:56;;;;;;;5.40;2.43;;;;;;;1.94;100.00;99875.19;5000515;28;20544;-49
2023/03/17 06:18:22;;;;;;;1.30;0.90;;;;;;;2.00;100.00;99875.19;5004658;28;20522;-48
2023/03/17 06:20:49;;;;;;;1.10;0.70;;;;;;;2.14;100.00;99884.78;5002435;28;20575;-49
2023/03/17 06:23:16;;;;;;;1.83;1.73;;;;;;;2.23;100.00;99892.66;4997689;28;20850;-49
2023/03/17 06:25:42;;;;;;;0.73;0.63;;;;;;;2.34;100.00;99889.13;4999666;28;20462;-49
2023/03/17 06:28:09;;;;;;;2.13;2.00;;;;;;;2.51;100.00;99886.47;5004129;28;20865;-48
2023/03/17 06:30:36;;;;;;;3.60;3.07;;;;;;;2.39;100.00;99883.88;5002679;28;20469;-48
2023/03/17 06:33:06;;;;;;;1.27;1.27;;;;;;;2.27;100.00;99895.25;4995425;28;20938;-48
2023/03/17 06:35:33;;;;;;;1.13;1.13;;;;;;;2.43;100.00;99888.22;5003497;28;20453;-48
2023/03/17 06:38:01;;;;;;;0.93;0.83;;;;;;;2.39;100.00;99891.72;4997675;28;20540;-49
2023/03/17 06:40:27;;;;;;;1.80;1.70;;;;;;;2.64;100.00;99880.31;4998233;28;20876;-48
2023/03/17 06:42:54;;;;;;;0.60;0.60;;;;;;;2.84;100.00;99890.72;5004096;28;20520;-49
2023/03/17 06:45:20;;;;;;;1.50;1.07;;;;;;;2.91;100.00;99881.94;4991102;28;20533;-48
2023/03/17 06:47:47;;;;;;;1.17;1.17;;;;;;;3.21;100.00;99880.06;4997458;28;20457;-49
2023/03/17 06:50:13;;;;;;;1.77;1.67;;;;;;;3.25;100.00;99874.75;4997762;28;20477;-49
2023/03/17 06:52:40;;;;;;;1.37;1.37;;;;;;;3.40;100.00;99879.06;5003354;28;20475;-49
2023/03/17 06:55:07;;;;;;;1.17;1.07;;;;;;;3.54;100.00;99873.69;4997515;28;20537;-49
2023/03/17 06:57:35;;;;;;;1.00;0.90;;;;;;;3.78;100.00;99880.53;5003741;28;20461;-49
2023/03/17 07:00:05;;;;;;;2.10;1.80;;;;;;;3.85;100.00;99879.63;4991119;28;20497;-49
2023/03/17 07:02:32;;;;;;;0.77;0.77;;;;;;;4.02;100.00;99882.97;5003343;28;20453;-49
2023/03/17 07:04:59;;;;;;;10.47;2.43;;;;;;;4.10;100.00;99877.63;4995226;28;20533;-49
2023/03/17 07:07:26;;;;;;;4.40;3.43;;;;;;;4.42;100.00;99874.72;5003005;28;20499;-49
2023/03/17 07:09:53;;;;;;;2.00;1.90;;;;;;;4.57;100.00;99889.47;5002545;28;20448;-49
2023/03/17 07:12:20;;;;;;;19.63;2.00;;;;;;;4.98;99.38;99878.44;4998973;28;20453;-49
2023/03/17 07:14:47;;;;;;;1.67;1.60;;;;;;;4.83;98.34;99882.16;4996842;28;20787;-49
2023/03/17 07:17:14;;;;;;;1.63;1.53;;;;;;;4.98;98.21;99884.59;5000938;28;20445;-49
2023/03/17 07:19:41;;;;;;;2.77;1.93;;;;;;;5.07;98.50;99880.94;5003605;28;20484;-49
2023/03/17 07:22:10;;;;;;;4.97;2.73;;;;;;;4.88;97.79;99880.31;4999228;28;20457;-49
2023/03/17 07:24:37;;;;;;;10.33;1.60;;;;;;;5.04;97.64;99879.22;4996786;28;20450;-49
2023/03/17 07:27:03;;;;;;;3.03;2.83;;;;;;;5.29;98.16;99869.25;5000760;28;20449;-49
2023/03/17 07:29:32;;;;;;;1.27;1.23;;;;;;;5.43;96.78;99866.41;5003384;28;20459;-49
2023/03/17 07:32:00;;;;;;;1.17;1.03;;;;;;;5.61;95.98;99874.03;4999700;28;20464;-50
2023/03/17 07:34:27;;;;;;;1.87;1.77;;;;;;;5.59;96.24;99877.59;5002924;28;20508;-49
2023/03/17 07:36:53;;;;;;;2.57;1.70;;;;;;;5.56;96.70;99872.38;4999909;28;20941;-49
2023/03/17 07:39:20;;;;;;;2.40;1.13;;;;;;;5.71;96.83;99876.53;4996759;28;20519;-49
2023/03/17 07:41:51;;;;;;;3.37;2.00;;;;;;;6.16;95.87;99867.00;4999577;28;20985;-49
2023/03/17 07:44:18;;;;;;;1.53;1.43;;;;;;;6.16;95.04;99865.25;5002485;28;20448;-50
2023/03/17 07:46:45;;;;;;;3.63;3.30;;;;;;;6.54;94.90;99866.31;5001515;28;20670;-50
2023/03/17 07:49:12;;;;;;;3.37;3.17;;;;;;;6.68;94.41;99856.34;4996357;28;20453;-50
2023/03/17 07:51:41;;;;;;;1.80;1.70;;;;;;;6.70;94.32;99854.56;4992690;28;20474;-50
2023/03/17 07:54:09;;;;;;;3.63;3.37;;;;;;;6.76;93.27;99851.81;5002136;28;20889;-50
2023/03/17 07:56:35;;;;;;;7.23;3.07;;;;;;;6.69;93.90;99847.53;5002057;28;20457;-50
2023/03/17 07:59:02;;;;;;;1.63;1.50;;;;;;;7.05;91.90;99845.91;4996370;28;20455;-49
2023/03/17 08:01:29;;;;;;;3.07;2.40;;;;;;;7.39;92.36;99835.44;4996856;28;20500;-49
2023/03/17 08:03:56;;;;;;;2.00;1.90;;;;;;;7.35;90.97;99828.50;5005899;28;20453;-50
2023/03/17 08:06:24;;;;;;;2.17;1.90;;;;;;;7.27;91.26;99826.97;4996286;28;20908;-49
2023/03/17 08:08:51;;;;;;;5.63;3.00;;;;;;;7.38;90.95;99839.00;5002699;28;20458;-50
2023/03/17 08:11:18;;;;;;;2.60;2.40;;;;;;;7.51;90.41;99850.16;5003018;28;20874;-50
2023/03/17 08:13:46;;;;;;;3.40;3.10;;;;;;;8.04;90.18;99840.06;4996480;28;20497;-50
2023/03/17 08:16:12;;;;;;;3.67;3.37;;;;;;;7.77;90.11;99851.31;4996042;28;20969;-50
2023/03/17 08:18:39;;;;;;;3.63;2.33;;;;;;;7.85;90.30;99860.81;5002404;28;20460;-49
2023/03/17 08:21:06;;;;;;;3.03;2.83;;;;;;;8.31;89.70;99846.41;5002267;28;20492;-50
2023/03/17 08:23:32;;;;;;;10.33;2.93;;;;;;;8.63;89.21;99856.16;4996548;28;20456;-50
2023/03/17 08:26:00;;;;;;;2.40;2.20;;;;;;;8.75;88.18;99845.22;4995724;28;20942;-49
2023/03/17 08:28:27;;;;;;;7.57;2.53;;;;;;;8.80;88.13;99848.63;5002503;28;20950;-49
2023/03/17 08:31:06;;;;;;;3.57;3.43;;;;;;;8.97;87.82;99852.56;5005781;28;20464;-49
2023/03/17 08:33:34;;;;;;;2.97;2.70;;;;;;;9.22;87.27;99850.06;4996567;28;20449;-49
2023/03/17 08:36:04;;;;;;;3.00;2.20;;;;;;;9.09;86.54;99845.13;5006025;28;20446;-50
2023/03/17 08:38:32;;;;;;;3.00;2.67;;;;;;;8.93;87.08;99840.31;5003185;28;20441;-50
2023/03/17 08:41:01;;;;;;;1.67;1.57;;;;;;;9.03;87.07;99840.00;4998991;28;20527;-49
2023/03/17 08:43:27;;;;;;;1.97;1.83;;;;;;;9.47;86.58;99835.13;5001409;28;20949;-50
2023/03/17 08:46:02;;;;;;;3.30;3.03;;;;;;;9.66;85.97;99830.09;4997051;28;20448;-50
2023/03/17 08:48:30;;;;;;;6.63;2.70;;;;;;;9.56;86.04;99824.22;5000017;28;20470;-49
2023/03/17 08:50:57;;;;;;;5.13;2.60;;;;;;;9.63;86.45;99825.78;5005646;28;20461;-49
2023/03/17 08:53:24;;;;;;;2.60;2.40;;;;;;;9.60;85.53;99822.34;4985774;28;20468;-50
2023/03/17 08:55:53;;;;;;;5.43;1.90;;;;;;;9.72;85.73;99814.84;5005457;28;20549;-50
2023/03/17 08:58:20;;;;;;;1.50;1.40;;;;;;;9.74;86.64;99801.53;5005468;28;20452;-50
2023/03/17 09:00:47;;;;;;;6.80;2.40;;;;;;;9.75;85.98;99801.50;4999061;28;20869;-49
2023/03/17 09:03:15;;;;;;;4.17;2.93;;;;;;;10.01;85.61;99799.75;5001151;28;20452;-50
2023/03/17 09:05:42;;;;;;;2.13;1.60;;;;;;;9.86;85.24;99784.31;4999745;28;20452;-50
2023/03/17 09:08:10;;;;;;;5.13;3.07;;;;;;;10.14;84.91;99790.41;4998635;28;20467;-49
2023/03/17 09:10:37;;;;;;;4.00;2.63;;;;;;;10.23;83.81;99797.22;5004055;28;20465;-49
2023/03/17 09:13:04;;;;;;;2.53;2.33;;;;;;;10.00;85.30;99793.53;5005088;28;20459;-50
2023/03/17 09:15:32;;;;;;;6.20;3.53;;;;;;;10.23;85.59;99786.59;5000213;28;20457;-50
2023/03/17 09:18:00;;;;;;;3.50;3.17;;;;;;;10.19;85.90;99782.31;4998692;28;20450;-50
2023/03/17 09:20:27;;;;;;;4.47;2.97;;;;;;;10.20;85.47;99786.69;5003002;28;20476;-50
2023/03/17 09:22:53;;;;;;;3.07;2.30;;;;;;;10.44;85.42;99785.00;5005193;28;20547;-50
2023/03/17 09:25:20;;;;;;;3.67;2.57;;;;;;;10.57;85.10;99781.84;4999538;28;20449;-50
2023/03/17 09:27:46;;;;;;;3.27;3.03;;;;;;;10.45;85.64;99784.06;4998406;28;20460;-50
2023/03/17 09:30:13;;;;;;;4.57;3.13;;;;;;;10.65;85.88;99786.84;5002384;28;20476;-50
2023/03/17 09:32:39;;;;;;;5.47;2.83;;;;;;;10.84;85.38;99774.63;5005146;28;20825;-50
2023/03/17 09:35:06;;;;;;;3.77;2.57;;;;;;;10.98;84.94;99780.28;5001338;28;20518;-50
2023/03/17 09:37:36;;;;;;;13.13;2.83;;;;;;;10.91;84.67;99773.44;5005035;28;20540;-50
2023/03/17 09:40:07;;;;;;;2.70;2.60;;;;;;;10.83;84.85;99772.88;4999636;28;20479;-50
2023/03/17 09:42:54;;;;;;;3.67;2.50;;;;;;;10.98;85.19;99772.28;4997859;28;20484;-50
2023/03/17 09:45:32;;;;;;;3.67;2.77;;;;;;;11.19;85.04;99781.22;4998162;28;20526;-50
2023/03/17 09:48:26;;;;;;;3.97;2.77;;;;;;;11.24;83.77;99775.72;4988268;28;20826;-50
2023/03/17 09:50:57;;;;;;;11.30;2.60;;;;;;;11.05;84.48;99785.34;4997867;28;20984;-50
2023/03/17 09:53:32;;;;;;;5.93;2.90;;;;;;;11.22;83.52;99781.09;5004361;28;20451;-50
2023/03/17 09:56:05;;;;;;;2.43;2.30;;;;;;;11.33;84.43;99798.44;4986129;28;20501;-50
2023/03/17 09:58:33;;;;;;;3.10;2.23;;;;;;;11.21;83.08;99794.44;4997835;28;20815;-49
2023/03/17 10:01:04;;;;;;;5.50;3.13;;;;;;;11.08;84.25;99787.88;5002929;28;20580;-50
2023/03/17 10:03:31;;;;;;;2.40;2.20;;;;;;;11.11;84.32;99790.44;5004290;28;20605;-50
2023/03/17 10:06:14;;;;;;;2.00;1.90;;;;;;;11.35;83.56;99784.13;5001470;28;20458;-50
2023/03/17 10:08:50;;;;;;;3.20;2.90;;;;;;;11.30;83.28;99777.28;5004624;28;20446;-50
2023/03/17 10:11:21;;;;;;;2.90;2.70;;;;;;;11.12;83.95;99785.06;5004162;28;20547;-50
2023/03/17 10:13:53;;;;;;;2.33;2.13;;;;;;;11.35;83.65;99775.28;4999004;28;20451;-50
2023/03/17 10:16:25;;;;;;;3.53;3.33;;;;;;;11.44;82.76;99775.78;4997888;28;21034;-50
2023/03/17 10:18:57;;;;;;;2.37;2.27;;;;;;;11.55;81.70;99780.69;5002033;28;20454;-50
2023/03/17 10:21:27;;;;;;;2.03;1.83;;;;;;;11.60;81.63;99777.81;5004566;28;20498;-50
2023/03/17 10:23:56;;;;;;;3.17;2.00;;;;;;;11.74;81.65;99756.81;5001801;28;20551;-50
2023/03/17 10:26:31;;;;;;;2.60;2.10;;;;;;;11.96;81.44;99760.34;4997583;28;20453;-50
2023/03/17 10:29:02;;;;;;;1.63;1.53;;;;;;;12.02;80.54;99773.41;4999239;28;20937;-50
2023/03/17 10:31:33;;;;;;;3.63;3.43;;;;;;;12.05;79.89;99767.06;5004339;28;20466;-51
2023/03/17 10:34:12;;;;;;;3.00;2.80;;;;;;;11.98;79.90;99766.47;4995011;28;20450;-51
2023/03/17 10:36:43;;;;;;;3.60;3.30;;;;;;;11.84;79.75;99760.88;5002288;28;20456;-49
2023/03/17 10:39:13;;;;;;;3.27;3.07;;;;;;;12.16;79.46;99757.69;5004027;28;20452;-49
2023/03/17 10:41:53;;;;;;;1.70;1.60;;;;;;;12.16;79.47;99752.34;5000585;28;20571;-49
2023/03/17 10:44:27;;;;;;;2.83;2.33;;;;;;;12.34;79.26;99758.69;4992752;28;20442;-49
2023/03/17 10:46:55;;;;;;;3.00;2.77;;;;;;;12.40;78.64;99755.75;5003957;28;20817;-51
2023/03/17 10:49:23;;;;;;;2.40;2.20;;;;;;;12.17;80.28;99747.88;4997108;28;20452;-51
2023/03/17 10:51:54;;;;;;;2.40;2.30;;;;;;;12.22;80.05;99753.03;4989868;28;20501;-51
2023/03/17 10:54:24;;;;;;;5.20;2.70;;;;;;;12.22;79.61;99753.91;5003761;28;20446;-51
2023/03/17 10:57:00;;;;;;;5.93;2.67;;;;;;;12.31;79.45;99752.59;5003530;28;20831;-51
2023/03/17 10:59:36;;;;;;;3.17;2.97;;;;;;;12.48;78.92;99752.75;4999947;28;20449;-49
2023/03/17 11:02:19;;;;;;;2.67;2.57;;;;;;;12.59;79.10;99749.56;4996748;28;20871;-49
2023/03/17 11:04:45;;;;;;;2.37;2.17;;;;;;;12.88;79.01;99745.56;5006705;28;20445;-50
2023/03/17 11:07:20;;;;;;;5.43;3.70;;;;;;;12.92;78.69;99741.84;4996805;28;20997;-50
2023/03/17 11:09:49;;;;;;;3.10;2.90;;;;;;;12.80;78.57;99739.72;4996833;28;20473;-49
2023/03/17 11:12:33;;;;;;;2.27;1.80;;;;;;;12.79;78.58;99730.00;5001467;28;20449;-49
2023/03/17 11:15:02;;;;;;;4.20;3.20;;;;;;;12.69;79.70;99729.56;5003921;28;20441;-47
2023/03/17 11:17:50;;;;;;;7.43;3.27;;;;;;;12.93;79.53;99722.22;5001082;28;20464;-48
2023/03/17 11:20:38;;;;;;;4.67;4.37;;;;;;;13.02;79.49;99720.00;4984489;28;20465;-47
2023/03/17 11:23:22;;;;;;;3.70;2.50;;;;;;;13.14;79.51;99720.31;4996376;28;20502;-48
2023/03/17 11:26:00;;;;;;;3.20;3.00;;;;;;;13.24;78.46;99718.97;4998192;28;20820;-47
2023/03/17 11:28:32;;;;;;;9.77;2.43;;;;;;;13.37;77.78;99722.75;4997471;28;20493;-48
2023/03/17 11:31:08;;;;;;;3.93;3.33;;;;;;;13.55;77.79;99721.84;4996522;28;20553;-50
2023/03/17 11:33:58;;;;;;;2.77;2.57;;;;;;;13.50;77.92;99713.22;5007062;28;20449;-51
2023/03/17 11:36:36;;;;;;;4.40;4.00;;;;;;;13.39;78.43;99704.00;4996442;28;20938;-48
2023/03/17 11:39:19;;;;;;;2.80;2.30;;;;;;;13.42;79.41;99710.03;4995383;28;20479;-48
2023/03/17 11:42:11;;;;;;;3.70;3.40;;;;;;;13.66;78.35;99704.44;5000398;28;20996;-48
2023/03/17 11:44:54;;;;;;;2.70;1.90;;;;;;;13.70;78.16;99716.66;5001824;28;20457;-48